sensor_id;sensor_type;location;lat;lon;timestamp;P1;durP1;ratioP1;P2;durP2;ratioP2
16113;SDS011;8161;-33.910;151.156;2024-01-11T00:00:13;7.35;;;4.28;;
16113;SDS011;8161;-33.910;151.156;2024-01-11T00:02:41;10.13;;;4.75;;
16113;SDS011;8161;-33.910;151.156;2024-01-11T00:05:08;10.25;;;5.30;;
16113;SDS011;8161;-33.910;151.156;2024-01-11T00:07:36;10.23;;;5.00;;
16113;SDS011;8161;-33.910;151.156;2024-01-11T00:10:03;14.18;;;4.70;;
16113;SDS011;8161;-33.910;151.156;2024-01-11T00:12:31;10.15;;;4.85;;
16113;SDS011;8161;-33.910;151.156;2024-01-11T00:14:58;11.45;;;5.50;;
16113;SDS011;8161;-33.910;151.156;2024-01-11T00:17:25;9.18;;;4.50;;
16113;SDS011;8161;-33.910;151.156;2024-01-11T00:19:53;10.32;;;4.93;;
16113;SDS011;8161;-33.910;151.156;2024-01-11T00:22:20;10.75;;;5.30;;
16113;SDS011;8161;-33.910;151.156;2024-01-11T00:24:47;9.00;;;4.60;;
16113;SDS011;8161;-33.910;151.156;2024-01-11T00:27:14;9.63;;;4.60;;
16113;SDS011;8161;-33.910;151.156;2024-01-11T00:29:42;10.93;;;5.50;;
16113;SDS011;8161;-33.910;151.156;2024-01-11T00:32:10;10.97;;;5.77;;
16113;SDS011;8161;-33.910;151.156;2024-01-11T00:34:37;9.30;;;5.60;;
16113;SDS011;8161;-33.910;151.156;2024-01-11T00:37:04;10.95;;;5.63;;
16113;SDS011;8161;-33.910;151.156;2024-01-11T00:39:32;10.13;;;5.72;;
16113;SDS011;8161;-33.910;151.156;2024-01-11T00:41:59;9.67;;;5.60;;
16113;SDS011;8161;-33.910;151.156;2024-01-11T00:44:27;11.00;;;6.38;;
16113;SDS011;8161;-33.910;151.156;2024-01-11T00:46:54;10.10;;;6.32;;
16113;SDS011;8161;-33.910;151.156;2024-01-11T00:49:22;9.63;;;5.87;;
16113;SDS011;8161;-33.910;151.156;2024-01-11T00:51:49;9.65;;;5.95;;
16113;SDS011;8161;-33.910;151.156;2024-01-11T00:54:16;11.13;;;6.23;;
16113;SDS011;8161;-33.910;151.156;2024-01-11T00:56:44;9.70;;;5.72;;
16113;SDS011;8161;-33.910;151.156;2024-01-11T00:59:11;11.80;;;6.47;;
16113;SDS011;8161;-33.910;151.156;2024-01-11T01:01:38;10.00;;;6.10;;
16113;SDS011;8161;-33.910;151.156;2024-01-11T01:04:05;9.17;;;5.90;;
16113;SDS011;8161;-33.910;151.156;2024-01-11T01:06:32;10.85;;;6.32;;
16113;SDS011;8161;-33.910;151.156;2024-01-11T01:09:00;10.60;;;6.22;;
16113;SDS011;8161;-33.910;151.156;2024-01-11T01:11:28;9.23;;;5.80;;
16113;SDS011;8161;-33.910;151.156;2024-01-11T01:13:55;11.10;;;6.15;;
16113;SDS011;8161;-33.910;151.156;2024-01-11T01:16:22;13.98;;;6.72;;
16113;SDS011;8161;-33.910;151.156;2024-01-11T01:18:49;9.27;;;5.65;;
16113;SDS011;8161;-33.910;151.156;2024-01-11T01:21:16;13.75;;;5.78;;
16113;SDS011;8161;-33.910;151.156;2024-01-11T01:23:44;11.45;;;6.40;;
16113;SDS011;8161;-33.910;151.156;2024-01-11T01:26:11;10.35;;;6.10;;
16113;SDS011;8161;-33.910;151.156;2024-01-11T01:28:38;11.73;;;6.32;;
16113;SDS011;8161;-33.910;151.156;2024-01-11T01:31:05;9.18;;;5.97;;
16113;SDS011;8161;-33.910;151.156;2024-01-11T01:33:36;10.18;;;5.65;;
16113;SDS011;8161;-33.910;151.156;2024-01-11T01:36:21;9.70;;;5.73;;
16113;SDS011;8161;-33.910;151.156;2024-01-11T01:38:48;10.87;;;5.93;;
16113;SDS011;8161;-33.910;151.156;2024-01-11T01:41:16;11.48;;;6.15;;
16113;SDS011;8161;-33.910;151.156;2024-01-11T01:43:43;10.80;;;5.93;;
16113;SDS011;8161;-33.910;151.156;2024-01-11T01:46:10;8.43;;;5.53;;
16113;SDS011;8161;-33.910;151.156;2024-01-11T01:48:42;9.98;;;5.50;;
16113;SDS011;8161;-33.910;151.156;2024-01-11T01:51:10;7.38;;;4.57;;
16113;SDS011;8161;-33.910;151.156;2024-01-11T01:53:37;9.40;;;5.13;;
16113;SDS011;8161;-33.910;151.156;2024-01-11T01:56:05;11.18;;;5.30;;
16113;SDS011;8161;-33.910;151.156;2024-01-11T01:58:34;11.32;;;5.43;;
16113;SDS011;8161;-33.910;151.156;2024-01-11T02:01:03;7.47;;;5.10;;
16113;SDS011;8161;-33.910;151.156;2024-01-11T02:03:30;9.70;;;5.63;;
16113;SDS011;8161;-33.910;151.156;2024-01-11T02:05:59;7.97;;;5.18;;
16113;SDS011;8161;-33.910;151.156;2024-01-11T02:08:26;8.35;;;5.55;;
16113;SDS011;8161;-33.910;151.156;2024-01-11T02:10:54;11.15;;;5.63;;
16113;SDS011;8161;-33.910;151.156;2024-01-11T02:13:22;7.95;;;4.82;;
16113;SDS011;8161;-33.910;151.156;2024-01-11T02:15:49;8.15;;;4.53;;
16113;SDS011;8161;-33.910;151.156;2024-01-11T02:18:17;6.43;;;4.13;;
16113;SDS011;8161;-33.910;151.156;2024-01-11T02:20:44;8.68;;;4.70;;
16113;SDS011;8161;-33.910;151.156;2024-01-11T02:23:14;5.93;;;4.20;;
16113;SDS011;8161;-33.910;151.156;2024-01-11T02:25:44;8.13;;;4.70;;
16113;SDS011;8161;-33.910;151.156;2024-01-11T02:28:11;8.48;;;4.80;;
16113;SDS011;8161;-33.910;151.156;2024-01-11T02:30:38;8.20;;;4.90;;
16113;SDS011;8161;-33.910;151.156;2024-01-11T02:33:05;9.43;;;5.10;;
16113;SDS011;8161;-33.910;151.156;2024-01-11T02:35:33;9.27;;;5.15;;
16113;SDS011;8161;-33.910;151.156;2024-01-11T02:38:04;7.30;;;5.30;;
16113;SDS011;8161;-33.910;151.156;2024-01-11T02:40:32;7.60;;;4.63;;
16113;SDS011;8161;-33.910;151.156;2024-01-11T02:43:09;10.43;;;4.68;;
16113;SDS011;8161;-33.910;151.156;2024-01-11T02:45:37;7.13;;;4.70;;
16113;SDS011;8161;-33.910;151.156;2024-01-11T02:48:05;8.52;;;5.03;;
16113;SDS011;8161;-33.910;151.156;2024-01-11T02:50:32;7.95;;;4.30;;
16113;SDS011;8161;-33.910;151.156;2024-01-11T02:52:59;7.65;;;4.25;;
16113;SDS011;8161;-33.910;151.156;2024-01-11T02:55:28;6.00;;;4.47;;
16113;SDS011;8161;-33.910;151.156;2024-01-11T02:57:56;6.78;;;4.55;;
16113;SDS011;8161;-33.910;151.156;2024-01-11T03:00:24;6.82;;;3.53;;
16113;SDS011;8161;-33.910;151.156;2024-01-11T03:02:51;6.90;;;3.97;;
16113;SDS011;8161;-33.910;151.156;2024-01-11T03:05:21;6.75;;;3.72;;
16113;SDS011;8161;-33.910;151.156;2024-01-11T03:07:49;6.05;;;3.35;;
16113;SDS011;8161;-33.910;151.156;2024-01-11T03:10:16;6.80;;;3.55;;
16113;SDS011;8161;-33.910;151.156;2024-01-11T03:12:43;6.00;;;3.38;;
16113;SDS011;8161;-33.910;151.156;2024-01-11T03:15:11;7.07;;;3.33;;
16113;SDS011;8161;-33.910;151.156;2024-01-11T03:17:38;5.35;;;2.60;;
16113;SDS011;8161;-33.910;151.156;2024-01-11T03:20:05;6.63;;;2.80;;
16113;SDS011;8161;-33.910;151.156;2024-01-11T03:22:33;6.70;;;2.85;;
16113;SDS011;8161;-33.910;151.156;2024-01-11T03:25:01;5.03;;;2.50;;
16113;SDS011;8161;-33.910;151.156;2024-01-11T03:27:28;5.95;;;2.55;;
16113;SDS011;8161;-33.910;151.156;2024-01-11T03:29:55;4.60;;;2.17;;
16113;SDS011;8161;-33.910;151.156;2024-01-11T03:32:22;6.93;;;2.60;;
16113;SDS011;8161;-33.910;151.156;2024-01-11T03:34:50;3.83;;;2.20;;
16113;SDS011;8161;-33.910;151.156;2024-01-11T03:37:17;4.67;;;2.13;;
16113;SDS011;8161;-33.910;151.156;2024-01-11T03:39:45;6.50;;;2.20;;
16113;SDS011;8161;-33.910;151.156;2024-01-11T03:42:12;4.60;;;2.40;;
16113;SDS011;8161;-33.910;151.156;2024-01-11T03:44:40;6.22;;;2.70;;
16113;SDS011;8161;-33.910;151.156;2024-01-11T03:47:07;6.05;;;2.75;;
16113;SDS011;8161;-33.910;151.156;2024-01-11T03:49:34;7.28;;;2.60;;
16113;SDS011;8161;-33.910;151.156;2024-01-11T03:52:01;5.70;;;2.55;;
16113;SDS011;8161;-33.910;151.156;2024-01-11T03:54:29;5.00;;;2.65;;
16113;SDS011;8161;-33.910;151.156;2024-01-11T03:56:56;6.80;;;3.15;;
16113;SDS011;8161;-33.910;151.156;2024-01-11T03:59:24;7.38;;;3.10;;
16113;SDS011;8161;-33.910;151.156;2024-01-11T04:01:51;7.18;;;3.20;;
16113;SDS011;8161;-33.910;151.156;2024-01-11T04:04:19;6.25;;;3.10;;
16113;SDS011;8161;-33.910;151.156;2024-01-11T04:06:49;7.90;;;3.30;;
16113;SDS011;8161;-33.910;151.156;2024-01-11T04:09:18;7.93;;;3.00;;
16113;SDS011;8161;-33.910;151.156;2024-01-11T04:11:46;5.05;;;2.92;;
16113;SDS011;8161;-33.910;151.156;2024-01-11T04:14:15;7.85;;;3.17;;
16113;SDS011;8161;-33.910;151.156;2024-01-11T04:16:44;5.93;;;2.80;;
16113;SDS011;8161;-33.910;151.156;2024-01-11T04:19:14;7.60;;;2.60;;
16113;SDS011;8161;-33.910;151.156;2024-01-11T04:21:42;8.25;;;3.20;;
16113;SDS011;8161;-33.910;151.156;2024-01-11T04:24:09;5.35;;;2.90;;
16113;SDS011;8161;-33.910;151.156;2024-01-11T04:26:37;6.10;;;2.40;;
16113;SDS011;8161;-33.910;151.156;2024-01-11T04:29:05;6.05;;;3.10;;
16113;SDS011;8161;-33.910;151.156;2024-01-11T04:31:32;5.72;;;2.95;;
16113;SDS011;8161;-33.910;151.156;2024-01-11T04:34:01;4.60;;;2.50;;
16113;SDS011;8161;-33.910;151.156;2024-01-11T04:36:29;5.07;;;2.78;;
16113;SDS011;8161;-33.910;151.156;2024-01-11T04:38:56;4.35;;;2.70;;
16113;SDS011;8161;-33.910;151.156;2024-01-11T04:41:24;5.93;;;2.85;;
16113;SDS011;8161;-33.910;151.156;2024-01-11T04:43:52;5.05;;;2.50;;
16113;SDS011;8161;-33.910;151.156;2024-01-11T04:46:23;4.30;;;1.70;;
16113;SDS011;8161;-33.910;151.156;2024-01-11T04:48:52;3.10;;;1.75;;
16113;SDS011;8161;-33.910;151.156;2024-01-11T04:51:19;4.17;;;1.83;;
16113;SDS011;8161;-33.910;151.156;2024-01-11T04:53:47;4.15;;;1.80;;
16113;SDS011;8161;-33.910;151.156;2024-01-11T04:56:15;5.18;;;2.00;;
16113;SDS011;8161;-33.910;151.156;2024-01-11T04:58:44;4.70;;;2.08;;
16113;SDS011;8161;-33.910;151.156;2024-01-11T05:01:12;7.65;;;2.08;;
16113;SDS011;8161;-33.910;151.156;2024-01-11T05:03:44;5.32;;;2.10;;
16113;SDS011;8161;-33.910;151.156;2024-01-11T05:06:18;5.30;;;1.63;;
16113;SDS011;8161;-33.910;151.156;2024-01-11T05:08:47;5.38;;;1.80;;
16113;SDS011;8161;-33.910;151.156;2024-01-11T05:11:18;5.40;;;1.70;;
16113;SDS011;8161;-33.910;151.156;2024-01-11T05:13:52;4.97;;;1.77;;
16113;SDS011;8161;-33.910;151.156;2024-01-11T05:16:23;4.32;;;1.90;;
16113;SDS011;8161;-33.910;151.156;2024-01-11T05:18:52;5.55;;;2.20;;
16113;SDS011;8161;-33.910;151.156;2024-01-11T05:21:20;7.20;;;1.98;;
16113;SDS011;8161;-33.910;151.156;2024-01-11T05:23:50;8.10;;;3.03;;
16113;SDS011;8161;-33.910;151.156;2024-01-11T05:26:18;3.47;;;1.40;;
16113;SDS011;8161;-33.910;151.156;2024-01-11T05:28:46;5.15;;;1.80;;
16113;SDS011;8161;-33.910;151.156;2024-01-11T05:31:14;6.10;;;1.65;;
16113;SDS011;8161;-33.910;151.156;2024-01-11T05:33:42;5.95;;;2.42;;
16113;SDS011;8161;-33.910;151.156;2024-01-11T05:36:09;8.10;;;1.95;;
16113;SDS011;8161;-33.910;151.156;2024-01-11T05:38:37;4.43;;;1.50;;
16113;SDS011;8161;-33.910;151.156;2024-01-11T05:41:06;6.05;;;1.70;;
16113;SDS011;8161;-33.910;151.156;2024-01-11T05:43:33;4.20;;;1.85;;
16113;SDS011;8161;-33.910;151.156;2024-01-11T05:46:01;4.95;;;1.75;;
16113;SDS011;8161;-33.910;151.156;2024-01-11T05:48:28;6.90;;;1.60;;
16113;SDS011;8161;-33.910;151.156;2024-01-11T05:50:56;2.05;;;1.27;;
16113;SDS011;8161;-33.910;151.156;2024-01-11T05:53:23;7.30;;;1.75;;
16113;SDS011;8161;-33.910;151.156;2024-01-11T05:55:51;4.13;;;1.67;;
16113;SDS011;8161;-33.910;151.156;2024-01-11T05:58:19;4.80;;;1.98;;
16113;SDS011;8161;-33.910;151.156;2024-01-11T06:00:46;3.70;;;1.67;;
16113;SDS011;8161;-33.910;151.156;2024-01-11T06:03:13;8.02;;;1.52;;
16113;SDS011;8161;-33.910;151.156;2024-01-11T06:05:41;3.15;;;1.38;;
16113;SDS011;8161;-33.910;151.156;2024-01-11T06:08:08;3.42;;;1.50;;
16113;SDS011;8161;-33.910;151.156;2024-01-11T06:10:35;5.93;;;1.65;;
16113;SDS011;8161;-33.910;151.156;2024-01-11T06:13:03;5.78;;;1.70;;
16113;SDS011;8161;-33.910;151.156;2024-01-11T06:15:30;9.57;;;1.90;;
16113;SDS011;8161;-33.910;151.156;2024-01-11T06:17:57;5.90;;;1.88;;
16113;SDS011;8161;-33.910;151.156;2024-01-11T06:20:25;4.50;;;1.65;;
16113;SDS011;8161;-33.910;151.156;2024-01-11T06:22:52;4.07;;;1.52;;
16113;SDS011;8161;-33.910;151.156;2024-01-11T06:25:20;4.22;;;1.83;;
16113;SDS011;8161;-33.910;151.156;2024-01-11T06:27:47;8.38;;;2.25;;
16113;SDS011;8161;-33.910;151.156;2024-01-11T06:30:14;5.65;;;1.88;;
16113;SDS011;8161;-33.910;151.156;2024-01-11T06:32:41;4.07;;;1.63;;
16113;SDS011;8161;-33.910;151.156;2024-01-11T06:35:08;7.13;;;2.20;;
16113;SDS011;8161;-33.910;151.156;2024-01-11T06:37:36;10.70;;;2.22;;
16113;SDS011;8161;-33.910;151.156;2024-01-11T06:40:03;3.40;;;1.85;;
16113;SDS011;8161;-33.910;151.156;2024-01-11T06:42:33;3.88;;;1.58;;
16113;SDS011;8161;-33.910;151.156;2024-01-11T06:45:04;6.00;;;2.03;;
16113;SDS011;8161;-33.910;151.156;2024-01-11T06:47:32;3.97;;;1.90;;
16113;SDS011;8161;-33.910;151.156;2024-01-11T06:49:59;5.70;;;1.50;;
16113;SDS011;8161;-33.910;151.156;2024-01-11T06:52:26;5.50;;;1.60;;
16113;SDS011;8161;-33.910;151.156;2024-01-11T06:54:53;3.75;;;1.80;;
16113;SDS011;8161;-33.910;151.156;2024-01-11T06:57:21;8.80;;;2.58;;
16113;SDS011;8161;-33.910;151.156;2024-01-11T06:59:48;3.65;;;1.63;;
16113;SDS011;8161;-33.910;151.156;2024-01-11T07:02:16;3.25;;;1.50;;
16113;SDS011;8161;-33.910;151.156;2024-01-11T07:04:44;7.03;;;1.73;;
16113;SDS011;8161;-33.910;151.156;2024-01-11T07:07:11;3.60;;;1.40;;
16113;SDS011;8161;-33.910;151.156;2024-01-11T07:09:39;5.60;;;1.83;;
16113;SDS011;8161;-33.910;151.156;2024-01-11T07:12:06;4.32;;;1.80;;
16113;SDS011;8161;-33.910;151.156;2024-01-11T07:14:33;7.80;;;3.25;;
16113;SDS011;8161;-33.910;151.156;2024-01-11T07:17:01;5.53;;;1.98;;
16113;SDS011;8161;-33.910;151.156;2024-01-11T07:19:29;4.18;;;1.85;;
16113;SDS011;8161;-33.910;151.156;2024-01-11T07:21:56;5.30;;;2.15;;
16113;SDS011;8161;-33.910;151.156;2024-01-11T07:24:24;7.97;;;2.10;;
16113;SDS011;8161;-33.910;151.156;2024-01-11T07:26:51;4.63;;;1.80;;
16113;SDS011;8161;-33.910;151.156;2024-01-11T07:29:19;3.70;;;1.77;;
16113;SDS011;8161;-33.910;151.156;2024-01-11T07:31:46;5.35;;;1.92;;
16113;SDS011;8161;-33.910;151.156;2024-01-11T07:34:13;5.22;;;1.60;;
16113;SDS011;8161;-33.910;151.156;2024-01-11T07:36:41;3.17;;;2.00;;
16113;SDS011;8161;-33.910;151.156;2024-01-11T07:39:08;3.95;;;1.90;;
